Quincy, Illinois
Current Conditions -  °F | °C
As of 2:54 PM on Saturday 25 Oct 2014 (Local Time) from KUIN Reporting Station
Clear Clear  
Wind Chill: 25°   Ceiling: Unl
Heat Index: 26°   Visibility: 8mi
Dew Point:   Wind: 9mph
Humidity: 37%   Direction: 360°N
Pressure: 30.02"   Gusts: NA
Location:  39.94°N, 91.39°W
Report Text: KUIN 251954Z AUTO 36008KT 8SM CLR 25/09 A3002 RMK AO2 SLP160 T02500094
Loading
Personal Weather Stations






























Interactive Weather Map New forecast layout! Learn more

10-Day Weather Forecast

Advertisements
Track Severe Weather on mobile